Time;durP1;ratioP1;P1;durP2;ratioP2;P2;SDS_P1;SDS_P2;PMS_P1;PMS_P2;Temp;Humidity;BMP_temperature;BMP_pressure;BME280_temperature;BME280_humidity;BME280_pressure;Samples;Min_cycle;Max_cycle;Signal;HPM_P1;HPM_P2
2021/12/31 00:01:08;;;;;;;19.63;3.88;;;12.10;99.90;;;;;;5087545;28;20405;-77
2021/12/31 00:03:34;;;;;;;19.90;4.20;;;12.10;99.90;;;;;;5087329;28;20719;-77
2021/12/31 00:05:59;;;;;;;15.45;3.83;;;12.10;99.90;;;;;;5064878;28;20404;-77
2021/12/31 00:08:25;;;;;;;19.67;4.20;;;12.10;99.90;;;;;;5048892;28;20461;-77
2021/12/31 00:10:56;;;;;;;16.77;4.33;;;12.10;99.90;;;;;;5049069;28;20846;-77
2021/12/31 00:13:22;;;;;;;18.60;3.85;;;12.20;99.90;;;;;;5049184;28;20419;-78
2021/12/31 00:15:47;;;;;;;16.92;3.97;;;12.20;99.90;;;;;;5049460;28;20758;-78
2021/12/31 00:18:13;;;;;;;15.70;3.67;;;12.20;99.90;;;;;;5048971;28;21036;-78
2021/12/31 00:20:40;;;;;;;17.67;4.03;;;12.20;99.90;;;;;;5067048;28;20411;-78
2021/12/31 00:23:08;;;;;;;18.27;4.07;;;12.20;99.90;;;;;;5048667;28;20800;-78
2021/12/31 00:25:36;;;;;;;16.50;3.80;;;12.20;99.90;;;;;;5067257;28;20400;-78
2021/12/31 00:28:03;;;;;;;19.42;4.13;;;12.30;99.90;;;;;;5048914;28;20415;-78
2021/12/31 00:30:29;;;;;;;15.57;3.23;;;12.30;99.90;;;;;;5066989;28;20403;-78
2021/12/31 00:32:55;;;;;;;15.32;3.60;;;12.30;99.90;;;;;;5053081;28;20823;-78
2021/12/31 00:35:20;;;;;;;14.83;3.60;;;12.30;99.90;;;;;;5053440;28;20403;-78
2021/12/31 00:37:46;;;;;;;17.08;3.72;;;12.30;99.90;;;;;;5071623;28;20423;-78
2021/12/31 00:40:14;;;;;;;17.23;3.97;;;12.30;99.90;;;;;;5071141;28;20460;-78
2021/12/31 00:42:41;;;;;;;16.02;3.38;;;12.30;99.90;;;;;;5071570;28;20392;-78
2021/12/31 00:45:08;;;;;;;17.55;3.55;;;12.30;99.90;;;;;;5054085;28;20411;-78
2021/12/31 00:47:34;;;;;;;17.30;3.88;;;12.30;99.90;;;;;;5053459;28;20910;-78
2021/12/31 00:49:59;;;;;;;16.67;3.85;;;12.30;99.90;;;;;;5054069;28;20410;-78
2021/12/31 00:52:25;;;;;;;19.70;4.03;;;12.30;99.90;;;;;;5070961;28;20406;-78
2021/12/31 00:54:51;;;;;;;23.20;4.10;;;12.30;99.90;;;;;;5053235;28;20407;-78
2021/12/31 00:57:16;;;;;;;15.90;3.63;;;12.30;99.90;;;;;;5071420;28;20774;-78
2021/12/31 00:59:42;;;;;;;17.13;4.10;;;12.30;99.90;;;;;;5053779;28;20443;-78
2021/12/31 01:02:11;;;;;;;19.15;3.88;;;12.20;99.90;;;;;;5071108;28;20486;-78
2021/12/31 01:04:36;;;;;;;18.23;3.77;;;12.20;99.90;;;;;;5052863;28;20412;-78
2021/12/31 01:07:02;;;;;;;20.13;4.38;;;12.20;99.90;;;;;;5071160;28;20817;-78
2021/12/31 01:09:31;;;;;;;17.17;4.30;;;12.10;99.90;;;;;;5053575;28;20890;-76
2021/12/31 01:11:58;;;;;;;18.88;4.20;;;12.10;99.90;;;;;;5071231;28;20399;-78
2021/12/31 01:14:33;;;;;;;21.38;4.60;;;12.10;99.90;;;;;;5052950;28;20403;-78
2021/12/31 01:17:03;;;;;;;16.88;4.15;;;12.10;99.90;;;;;;5053005;28;20419;-78
2021/12/31 01:19:51;;;;;;;20.63;4.30;;;12.10;99.90;;;;;;5070937;28;20469;-78
2021/12/31 01:22:24;;;;;;;19.13;4.23;;;12.10;99.90;;;;;;5070663;28;20400;-78
2021/12/31 01:24:50;;;;;;;18.50;4.13;;;12.10;99.90;;;;;;5053312;28;20935;-78
2021/12/31 01:27:16;;;;;;;18.77;4.33;;;12.10;99.90;;;;;;5070520;28;20407;-78
2021/12/31 01:29:42;;;;;;;17.17;3.70;;;12.00;99.90;;;;;;5052992;28;20408;-78
2021/12/31 01:32:08;;;;;;;20.85;5.03;;;12.10;99.90;;;;;;5052464;28;20517;-78
2021/12/31 01:34:34;;;;;;;16.02;3.55;;;12.10;99.90;;;;;;5053116;28;20803;-78
2021/12/31 01:37:00;;;;;;;21.00;4.38;;;12.10;99.90;;;;;;5070794;28;20420;-78
2021/12/31 01:39:27;;;;;;;21.38;4.07;;;12.10;99.90;;;;;;5052828;28;20747;-78
2021/12/31 01:41:56;;;;;;;19.10;3.78;;;12.10;99.90;;;;;;5070188;28;20404;-78
2021/12/31 01:44:23;;;;;;;15.10;3.70;;;12.10;99.90;;;;;;5051702;28;20480;-78
2021/12/31 01:47:03;;;;;;;20.67;4.18;;;12.10;99.90;;;;;;5070505;28;20400;-78
2021/12/31 01:49:35;;;;;;;18.83;4.23;;;12.10;99.90;;;;;;5052532;28;20421;-78
2021/12/31 01:52:01;;;;;;;18.85;4.03;;;12.10;99.90;;;;;;5070328;28;20506;-78
2021/12/31 01:54:29;;;;;;;17.33;3.78;;;12.10;99.90;;;;;;5052553;28;20805;-78
2021/12/31 01:56:55;;;;;;;18.50;3.90;;;12.10;99.90;;;;;;5052345;28;20443;-78
2021/12/31 01:59:21;;;;;;;18.15;3.83;;;12.10;99.90;;;;;;5052350;28;20404;-78
2021/12/31 02:01:47;;;;;;;16.38;3.70;;;12.10;99.90;;;;;;5070373;28;20400;-78
2021/12/31 02:04:13;;;;;;;20.02;4.50;;;12.10;99.90;;;;;;5069502;28;20400;-78
2021/12/31 02:06:39;;;;;;;17.77;4.15;;;12.10;99.90;;;;;;5045016;28;20405;-78
2021/12/31 02:09:06;;;;;;;14.75;3.58;;;12.10;99.90;;;;;;5072387;28;20410;-78
2021/12/31 02:11:32;;;;;;;18.73;3.75;;;12.10;99.90;;;;;;5072061;28;20406;-78
2021/12/31 02:14:01;;;;;;;17.60;3.67;;;12.10;99.90;;;;;;5071989;28;20401;-78
2021/12/31 02:16:27;;;;;;;18.63;3.72;;;12.20;99.90;;;;;;5072032;28;20405;-78
2021/12/31 02:18:52;;;;;;;14.30;3.90;;;12.20;99.90;;;;;;5071861;28;20430;-78
2021/12/31 02:21:20;;;;;;;18.50;3.80;;;12.20;99.90;;;;;;5055323;28;20405;-78
2021/12/31 02:23:51;;;;;;;15.68;3.55;;;12.20;99.90;;;;;;5072158;28;20908;-78
2021/12/31 02:26:16;;;;;;;16.20;3.90;;;12.20;99.90;;;;;;5071677;28;20442;-78
2021/12/31 02:28:42;;;;;;;17.95;3.83;;;12.20;99.90;;;;;;5071699;28;20873;-78
2021/12/31 02:31:08;;;;;;;16.37;3.93;;;12.20;99.90;;;;;;5072001;28;20886;-78
2021/12/31 02:33:34;;;;;;;13.65;3.35;;;12.20;99.90;;;;;;5071732;28;20883;-78
2021/12/31 02:36:02;;;;;;;21.50;4.00;;;12.20;99.90;;;;;;5071756;28;20479;-78
2021/12/31 02:38:28;;;;;;;19.10;4.20;;;12.10;99.90;;;;;;5071046;28;20432;-78
2021/12/31 02:40:54;;;;;;;16.63;3.58;;;12.10;99.90;;;;;;5072168;28;20414;-78
2021/12/31 02:43:20;;;;;;;18.73;4.10;;;12.10;99.90;;;;;;5089358;28;20414;-78
2021/12/31 02:45:47;;;;;;;19.02;3.63;;;12.20;99.90;;;;;;5089751;28;20405;-78
2021/12/31 02:48:13;;;;;;;16.05;4.18;;;12.20;99.90;;;;;;5054272;28;20908;-78
2021/12/31 02:50:41;;;;;;;15.55;3.85;;;12.20;99.90;;;;;;5071517;28;20456;-78
2021/12/31 02:53:12;;;;;;;13.85;3.65;;;12.20;99.90;;;;;;5088596;28;20398;-78
2021/12/31 02:55:40;;;;;;;17.40;4.05;;;12.20;99.90;;;;;;5089416;28;20412;-78
2021/12/31 02:58:07;;;;;;;15.13;3.97;;;12.20;99.90;;;;;;5089018;28;20422;-78
2021/12/31 03:00:35;;;;;;;16.53;3.60;;;12.30;99.90;;;;;;5084888;28;20414;-78
2021/12/31 03:03:03;;;;;;;16.03;4.57;;;12.30;99.90;;;;;;5050926;28;20451;-78
2021/12/31 03:05:30;;;;;;;15.60;3.83;;;12.40;99.90;;;;;;5068902;28;20415;-78
2021/12/31 03:07:57;;;;;;;15.07;4.35;;;12.40;99.90;;;;;;5068998;28;20408;-78
2021/12/31 03:10:25;;;;;;;16.90;3.30;;;12.40;99.90;;;;;;5050882;28;20412;-77
2021/12/31 03:12:52;;;;;;;16.60;4.18;;;12.40;99.90;;;;;;5051003;28;20975;-78
2021/12/31 03:15:17;;;;;;;16.35;3.33;;;12.40;99.90;;;;;;5050568;28;20415;-78
2021/12/31 03:17:44;;;;;;;14.83;3.83;;;12.50;99.90;;;;;;5073183;28;20483;-78
2021/12/31 03:20:24;;;;;;;13.82;3.17;;;12.50;99.90;;;;;;5070969;28;20412;-77
2021/12/31 03:22:50;;;;;;;11.52;3.58;;;12.50;99.90;;;;;;5071111;28;20410;-78
2021/12/31 03:25:15;;;;;;;13.27;3.42;;;12.50;99.90;;;;;;5054352;28;20886;-78
2021/12/31 03:27:41;;;;;;;12.90;3.40;;;12.50;99.90;;;;;;5070317;28;20401;-78
2021/12/31 03:30:10;;;;;;;14.38;3.40;;;12.50;99.90;;;;;;5070572;28;20991;-77
2021/12/31 03:32:35;;;;;;;10.52;3.05;;;12.50;99.90;;;;;;5070826;28;20406;-78
2021/12/31 03:35:01;;;;;;;16.20;3.63;;;12.50;99.90;;;;;;5064560;28;21004;-78
2021/12/31 03:37:27;;;;;;;11.90;3.05;;;12.50;99.90;;;;;;5050464;28;20971;-78
2021/12/31 03:39:52;;;;;;;13.57;3.27;;;12.50;99.90;;;;;;5050671;28;20472;-78
2021/12/31 03:42:18;;;;;;;13.93;3.20;;;12.50;99.90;;;;;;5050221;28;20920;-78
2021/12/31 03:44:45;;;;;;;14.23;3.58;;;12.60;99.90;;;;;;5068245;28;20408;-78
2021/12/31 03:47:10;;;;;;;14.15;3.03;;;12.60;99.90;;;;;;5050728;28;20762;-78
2021/12/31 03:49:36;;;;;;;11.17;2.97;;;12.60;99.90;;;;;;5050360;28;20412;-78
2021/12/31 03:52:02;;;;;;;12.57;3.20;;;12.60;99.90;;;;;;5050346;28;20392;-78
2021/12/31 03:54:28;;;;;;;11.98;3.20;;;12.60;99.90;;;;;;5050139;28;20419;-78
2021/12/31 03:56:53;;;;;;;11.90;3.05;;;12.60;99.90;;;;;;5034001;28;20414;-78
2021/12/31 03:59:19;;;;;;;12.50;2.90;;;12.60;99.90;;;;;;5068223;28;20404;-78
2021/12/31 04:01:44;;;;;;;8.88;2.83;;;12.60;99.90;;;;;;5050133;28;20491;-78
2021/12/31 04:04:12;;;;;;;8.70;2.90;;;12.60;99.90;;;;;;5050344;28;20499;-78
2021/12/31 04:06:38;;;;;;;11.48;3.55;;;12.70;99.90;;;;;;5050242;28;20474;-78
2021/12/31 04:09:03;;;;;;;11.32;3.05;;;12.70;99.90;;;;;;5055278;28;20410;-78
2021/12/31 04:11:29;;;;;;;10.40;2.43;;;12.70;99.90;;;;;;5069881;28;20497;-78
2021/12/31 04:13:55;;;;;;;14.27;3.30;;;12.70;99.90;;;;;;5070407;28;20745;-78
2021/12/31 04:16:21;;;;;;;10.83;3.10;;;12.70;99.90;;;;;;5070145;28;20816;-78
2021/12/31 04:18:47;;;;;;;10.05;2.92;;;12.70;99.90;;;;;;5087498;28;20432;-78
2021/12/31 04:21:17;;;;;;;11.10;2.73;;;12.70;99.90;;;;;;5070166;28;20493;-78
2021/12/31 04:26:27;;;;;;;10.38;2.55;;;12.60;99.90;;;;;;5070179;28;20421;-78
2021/12/31 04:28:53;;;;;;;9.83;2.63;;;12.60;99.90;;;;;;5069865;28;20899;-78
2021/12/31 04:31:18;;;;;;;9.50;2.58;;;12.60;99.90;;;;;;5087640;28;20402;-78
2021/12/31 04:33:44;;;;;;;9.40;2.30;;;12.60;99.90;;;;;;5070118;28;20402;-78
2021/12/31 04:36:10;;;;;;;9.50;2.70;;;12.60;99.90;;;;;;5087984;28;20421;-78
2021/12/31 04:38:36;;;;;;;9.80;2.50;;;12.60;99.90;;;;;;5070058;28;20526;-78
2021/12/31 04:41:02;;;;;;;8.77;2.03;;;12.60;99.90;;;;;;5069938;28;20398;-78
2021/12/31 04:43:28;;;;;;;9.57;2.20;;;12.60;99.90;;;;;;5087886;28;20462;-78
2021/12/31 04:45:54;;;;;;;11.85;2.63;;;12.70;99.90;;;;;;5087863;28;20397;-78
2021/12/31 04:48:20;;;;;;;9.18;1.98;;;12.70;99.90;;;;;;5069784;28;20420;-78
2021/12/31 04:50:45;;;;;;;9.05;2.25;;;12.70;99.90;;;;;;5088108;28;20493;-78
2021/12/31 04:53:11;;;;;;;11.47;2.60;;;12.70;99.90;;;;;;5069563;28;20448;-78
2021/12/31 04:55:37;;;;;;;10.02;2.40;;;12.70;99.90;;;;;;5069714;28;20443;-78
2021/12/31 04:58:02;;;;;;;12.07;2.70;;;12.70;99.90;;;;;;5087771;28;20461;-78
2021/12/31 05:00:28;;;;;;;10.40;3.00;;;12.70;99.90;;;;;;5087761;28;20482;-78
2021/12/31 05:02:54;;;;;;;9.77;2.40;;;12.70;99.90;;;;;;5088006;28;20473;-78
2021/12/31 05:05:19;;;;;;;8.77;2.60;;;12.80;99.90;;;;;;5069313;28;20406;-78
2021/12/31 05:07:45;;;;;;;12.10;2.70;;;12.70;99.90;;;;;;5087659;28;20442;-78
2021/12/31 05:10:12;;;;;;;11.00;2.15;;;12.80;99.90;;;;;;5072645;28;20443;-78
2021/12/31 05:12:38;;;;;;;9.63;2.25;;;12.80;99.90;;;;;;5067705;28;20444;-78
2021/12/31 05:15:10;;;;;;;8.23;2.60;;;12.80;99.90;;;;;;5067298;28;20404;-78
2021/12/31 05:17:36;;;;;;;12.60;2.33;;;12.70;99.90;;;;;;5051055;28;20431;-78
2021/12/31 05:20:03;;;;;;;9.55;2.33;;;12.70;99.90;;;;;;5071085;28;20400;-78
2021/12/31 05:22:28;;;;;;;9.30;2.05;;;12.70;99.90;;;;;;5070769;28;20427;-78
2021/12/31 05:24:54;;;;;;;7.60;2.00;;;12.70;99.90;;;;;;5071207;28;20404;-78
2021/12/31 05:27:20;;;;;;;8.80;2.13;;;12.70;99.90;;;;;;5070838;28;20473;-78
2021/12/31 05:29:45;;;;;;;8.50;2.07;;;12.80;99.90;;;;;;5052864;28;20495;-78
2021/12/31 05:32:11;;;;;;;7.93;2.15;;;12.80;99.90;;;;;;5052288;28;20408;-78
2021/12/31 05:34:37;;;;;;;7.23;1.80;;;12.80;99.90;;;;;;5053147;28;20404;-78
2021/12/31 05:37:02;;;;;;;8.07;2.00;;;12.80;99.90;;;;;;5070475;28;20499;-78
2021/12/31 05:39:28;;;;;;;8.48;1.77;;;12.90;99.90;;;;;;5070718;28;20412;-78
2021/12/31 05:41:54;;;;;;;5.73;1.97;;;12.90;99.90;;;;;;5070406;28;20395;-78
2021/12/31 05:44:21;;;;;;;5.83;1.63;;;12.90;99.90;;;;;;5052237;28;20420;-78
2021/12/31 05:46:49;;;;;;;8.13;2.30;;;12.90;99.90;;;;;;5052715;28;20407;-78
2021/12/31 05:49:15;;;;;;;7.60;1.73;;;12.90;99.90;;;;;;5070537;28;20403;-78
2021/12/31 05:51:41;;;;;;;8.02;2.15;;;12.90;99.90;;;;;;5052421;28;20816;-78
2021/12/31 05:54:07;;;;;;;6.28;2.00;;;12.80;99.90;;;;;;5070559;28;20506;-78
2021/12/31 05:56:32;;;;;;;5.72;1.85;;;12.80;99.90;;;;;;5052295;28;20404;-78
2021/12/31 05:58:58;;;;;;;6.63;2.20;;;12.80;99.90;;;;;;5052574;28;20423;-78
2021/12/31 06:01:23;;;;;;;9.07;2.33;;;12.80;99.90;;;;;;5052375;28;20443;-78
2021/12/31 06:03:49;;;;;;;8.17;2.40;;;12.80;99.90;;;;;;5051838;28;20466;-78
2021/12/31 06:06:15;;;;;;;7.82;2.53;;;12.70;99.90;;;;;;5070245;28;20762;-78
2021/12/31 06:08:40;;;;;;;6.83;2.37;;;12.70;99.90;;;;;;5072625;28;20408;-77
2021/12/31 06:11:08;;;;;;;5.25;2.00;;;12.60;99.90;;;;;;5072319;28;20462;-78
2021/12/31 06:13:35;;;;;;;8.07;2.83;;;12.60;99.90;;;;;;5071522;28;20406;-78
2021/12/31 06:16:00;;;;;;;7.40;2.50;;;12.70;99.90;;;;;;5072289;28;20517;-78
2021/12/31 06:18:27;;;;;;;6.00;2.60;;;12.70;99.90;;;;;;5071783;28;20559;-78
2021/12/31 06:20:53;;;;;;;5.78;2.40;;;12.70;99.90;;;;;;5072129;28;20757;-78
2021/12/31 06:23:19;;;;;;;5.43;2.43;;;12.70;99.90;;;;;;5071370;28;20489;-78
2021/12/31 06:25:45;;;;;;;6.37;2.47;;;12.70;99.90;;;;;;5089987;28;20619;-78
2021/12/31 06:28:10;;;;;;;8.95;2.80;;;12.70;99.90;;;;;;5089844;28;20402;-78
2021/12/31 06:30:36;;;;;;;6.67;2.70;;;12.70;99.90;;;;;;5071665;28;20406;-78
2021/12/31 06:33:02;;;;;;;6.93;2.38;;;12.70;99.90;;;;;;5089655;28;20409;-77
2021/12/31 06:35:28;;;;;;;4.88;2.33;;;12.70;99.90;;;;;;5071719;28;20527;-77
2021/12/31 06:37:55;;;;;;;5.47;2.25;;;12.70;99.90;;;;;;5089770;28;20520;-77
2021/12/31 06:40:22;;;;;;;6.38;2.72;;;12.80;99.90;;;;;;5071696;28;20424;-77
2021/12/31 06:42:48;;;;;;;7.90;3.00;;;12.80;99.90;;;;;;5071618;28;20760;-78
2021/12/31 06:45:13;;;;;;;5.90;2.40;;;12.70;99.90;;;;;;5071471;28;20402;-77
2021/12/31 06:47:39;;;;;;;6.18;2.67;;;12.80;99.90;;;;;;5071622;28;20410;-77
2021/12/31 06:50:05;;;;;;;7.93;2.33;;;12.70;99.90;;;;;;5071555;28;21248;-78
2021/12/31 06:52:37;;;;;;;5.70;2.60;;;12.80;99.90;;;;;;5089113;28;21305;-77
2021/12/31 06:55:03;;;;;;;7.13;2.33;;;12.80;99.90;;;;;;5089314;28;20438;-75
2021/12/31 06:57:29;;;;;;;6.18;2.63;;;12.80;99.90;;;;;;5089581;28;20422;-74
2021/12/31 06:59:54;;;;;;;5.25;2.10;;;12.80;99.90;;;;;;5082013;28;20421;-75
2021/12/31 07:02:20;;;;;;;7.20;2.40;;;12.80;99.90;;;;;;5076305;28;20842;-75
2021/12/31 07:04:45;;;;;;;6.05;2.70;;;12.80;99.90;;;;;;5072744;28;20415;-77
2021/12/31 07:07:11;;;;;;;6.73;2.50;;;12.80;99.90;;;;;;5050824;28;20868;-77
2021/12/31 07:09:37;;;;;;;6.13;2.30;;;12.80;99.90;;;;;;5060960;28;20441;-77
2021/12/31 07:12:03;;;;;;;7.95;2.20;;;12.70;99.90;;;;;;5070893;28;20433;-77
2021/12/31 07:14:29;;;;;;;6.03;2.20;;;12.70;99.90;;;;;;5088875;28;20460;-77
2021/12/31 07:16:54;;;;;;;6.00;2.27;;;12.70;99.90;;;;;;5054396;28;20484;-77
2021/12/31 07:19:20;;;;;;;6.03;2.15;;;12.70;99.90;;;;;;5088856;28;20441;-77
2021/12/31 07:21:45;;;;;;;5.83;2.10;;;12.70;99.90;;;;;;5054186;28;20410;-77
2021/12/31 07:24:11;;;;;;;6.38;2.40;;;12.70;99.90;;;;;;5089011;28;20444;-78
2021/12/31 07:26:37;;;;;;;5.20;2.07;;;12.70;99.90;;;;;;5070582;28;20417;-77
2021/12/31 07:29:02;;;;;;;6.65;2.00;;;12.70;99.90;;;;;;5070690;28;20733;-77
2021/12/31 07:31:28;;;;;;;5.30;2.10;;;12.70;99.90;;;;;;5053894;28;20402;-77
2021/12/31 07:33:53;;;;;;;5.97;1.98;;;12.70;99.90;;;;;;5070786;28;20433;-77
2021/12/31 07:36:19;;;;;;;6.30;2.10;;;12.70;99.90;;;;;;5070517;28;20413;-77
2021/12/31 07:38:55;;;;;;;6.13;2.00;;;12.70;99.90;;;;;;5070402;28;20461;-77
2021/12/31 07:41:20;;;;;;;6.22;2.28;;;12.70;99.90;;;;;;5070008;28;21019;-77
2021/12/31 07:43:46;;;;;;;5.57;2.08;;;12.70;99.90;;;;;;5070390;28;20403;-77
2021/12/31 07:46:12;;;;;;;5.97;2.00;;;12.70;99.90;;;;;;5088407;28;20528;-77
2021/12/31 07:48:38;;;;;;;6.15;2.10;;;12.60;99.90;;;;;;5070207;28;20485;-77
2021/12/31 07:51:04;;;;;;;6.28;1.80;;;12.60;99.90;;;;;;5070521;28;20493;-77
2021/12/31 07:53:29;;;;;;;5.43;2.10;;;12.60;99.90;;;;;;5070135;28;20402;-78
2021/12/31 07:55:55;;;;;;;6.07;2.00;;;12.60;99.90;;;;;;5070167;28;20408;-78
2021/12/31 07:58:20;;;;;;;5.20;2.00;;;12.60;99.90;;;;;;5053729;28;20910;-77
2021/12/31 08:00:46;;;;;;;4.05;1.75;;;12.60;99.90;;;;;;5087876;28;20485;-77
2021/12/31 08:03:12;;;;;;;4.70;1.90;;;12.50;99.90;;;;;;5070053;28;20398;-78
2021/12/31 08:05:38;;;;;;;5.93;1.92;;;12.50;99.90;;;;;;5070146;28;20402;-78
2021/12/31 08:08:05;;;;;;;5.45;1.80;;;12.60;99.90;;;;;;5087910;28;20406;-78
2021/12/31 08:10:32;;;;;;;5.32;2.03;;;12.60;99.90;;;;;;5052475;28;20435;-77
2021/12/31 08:13:02;;;;;;;7.45;2.00;;;12.50;99.90;;;;;;5050247;28;20407;-78
2021/12/31 08:15:28;;;;;;;5.65;2.17;;;12.50;99.90;;;;;;5067554;28;20410;-77
2021/12/31 08:17:54;;;;;;;5.68;1.80;;;12.50;99.90;;;;;;5067517;28;20427;-77
2021/12/31 08:20:20;;;;;;;5.57;1.80;;;12.60;99.90;;;;;;5067580;28;20408;-77
2021/12/31 08:22:46;;;;;;;7.55;2.20;;;12.50;99.90;;;;;;5068185;28;20470;-78
2021/12/31 08:25:12;;;;;;;5.47;1.83;;;12.50;99.90;;;;;;5067975;28;20411;-77
2021/12/31 08:27:37;;;;;;;4.77;2.10;;;12.50;99.90;;;;;;5050086;28;20491;-77
2021/12/31 08:30:04;;;;;;;5.18;2.20;;;12.50;99.90;;;;;;5049710;28;20411;-77
2021/12/31 08:32:30;;;;;;;5.30;1.80;;;12.60;99.90;;;;;;5049842;28;20407;-77
2021/12/31 08:34:56;;;;;;;4.63;1.60;;;12.70;99.90;;;;;;5050013;28;20498;-77
2021/12/31 08:37:21;;;;;;;4.18;1.70;;;12.70;99.90;;;;;;5050028;28;20424;-77
2021/12/31 08:39:47;;;;;;;7.33;1.80;;;12.70;99.90;;;;;;5049868;28;20404;-77
2021/12/31 08:42:13;;;;;;;6.55;1.98;;;12.70;99.90;;;;;;5049297;28;20827;-77
2021/12/31 08:44:41;;;;;;;5.77;1.83;;;12.70;99.90;;;;;;5050072;28;20408;-77
2021/12/31 08:47:06;;;;;;;5.00;1.80;;;12.80;99.90;;;;;;5062788;28;20425;-74
2021/12/31 08:49:32;;;;;;;5.93;2.10;;;12.70;99.90;;;;;;5061129;28;20418;-76
2021/12/31 08:52:00;;;;;;;6.35;2.15;;;12.70;99.90;;;;;;5063751;28;20932;-74
2021/12/31 08:54:25;;;;;;;5.85;1.90;;;12.70;99.90;;;;;;5062719;28;20415;-75
2021/12/31 08:56:51;;;;;;;5.07;1.85;;;12.70;99.90;;;;;;5070579;28;20768;-75
2021/12/31 08:59:19;;;;;;;5.70;2.30;;;12.70;99.90;;;;;;5067967;28;20524;-76
2021/12/31 09:01:45;;;;;;;5.10;1.80;;;12.70;99.90;;;;;;5070358;28;20409;-76
2021/12/31 09:04:10;;;;;;;5.82;2.20;;;12.80;99.90;;;;;;5064178;28;20415;-75
2021/12/31 09:06:36;;;;;;;6.13;2.03;;;12.80;99.90;;;;;;5040209;28;20457;-76
2021/12/31 09:09:03;;;;;;;4.67;2.00;;;12.80;99.90;;;;;;5076342;28;20398;-76
2021/12/31 09:11:29;;;;;;;5.77;2.30;;;12.80;99.90;;;;;;5058483;28;20910;-76
2021/12/31 09:13:56;;;;;;;5.88;2.28;;;12.90;99.90;;;;;;5052949;28;20569;-76
2021/12/31 09:16:21;;;;;;;6.05;2.30;;;12.80;99.90;;;;;;5053436;28;20408;-75
2021/12/31 09:18:47;;;;;;;6.37;2.10;;;12.80;99.90;;;;;;5053163;28;20433;-76
2021/12/31 09:21:17;;;;;;;5.53;2.28;;;12.80;99.90;;;;;;5053437;28;20423;-76
2021/12/31 09:23:46;;;;;;;5.13;2.38;;;12.80;99.90;;;;;;5083572;28;20406;-76
2021/12/31 09:26:12;;;;;;;5.15;2.33;;;12.80;99.90;;;;;;5088049;28;20410;-76
2021/12/31 09:28:38;;;;;;;6.28;2.72;;;12.80;99.90;;;;;;5070856;28;20776;-76
2021/12/31 09:31:05;;;;;;;5.83;2.37;;;12.80;99.90;;;;;;5069175;28;22604;-73
2021/12/31 09:33:31;;;;;;;5.68;2.90;;;12.80;99.90;;;;;;5069942;28;20531;-74
2021/12/31 09:35:56;;;;;;;7.60;2.90;;;12.80;99.90;;;;;;5081844;28;20414;-73
2021/12/31 09:38:22;;;;;;;8.93;2.63;;;12.80;99.90;;;;;;5070355;28;20427;-75
2021/12/31 09:40:48;;;;;;;7.00;2.80;;;12.70;99.90;;;;;;5066842;28;20408;-75
2021/12/31 09:43:14;;;;;;;6.97;2.80;;;12.80;99.90;;;;;;5072770;28;20431;-75
2021/12/31 09:45:42;;;;;;;6.00;2.30;;;12.80;99.90;;;;;;5073221;28;20992;-75
2021/12/31 09:48:09;;;;;;;7.20;2.55;;;12.70;99.90;;;;;;5091146;28;20485;-75
2021/12/31 09:50:42;;;;;;;6.43;2.70;;;12.80;99.90;;;;;;5072480;28;20466;-76
2021/12/31 09:53:09;;;;;;;5.97;2.30;;;12.80;99.90;;;;;;5057405;28;20427;-76
2021/12/31 09:55:42;;;;;;;6.93;2.45;;;12.80;99.90;;;;;;5070586;28;20445;-76
2021/12/31 09:58:10;;;;;;;6.30;2.45;;;12.80;99.90;;;;;;5070180;28;20473;-75
2021/12/31 10:00:38;;;;;;;8.55;3.15;;;12.80;99.90;;;;;;5070414;28;20459;-76
2021/12/31 10:03:10;;;;;;;6.88;2.40;;;12.80;99.90;;;;;;5052561;28;20402;-75
2021/12/31 10:05:56;;;;;;;11.02;4.35;;;12.80;99.90;;;;;;5089141;28;20418;-76
2021/12/31 10:08:28;;;;;;;9.00;3.70;;;12.80;99.90;;;;;;5051083;28;20412;-76
2021/12/31 10:11:20;;;;;;;9.80;3.30;;;12.80;99.90;;;;;;5060718;28;20795;-76
2021/12/31 10:13:57;;;;;;;8.70;3.58;;;12.80;99.90;;;;;;5054671;28;20418;-76
2021/12/31 10:16:33;;;;;;;10.25;3.47;;;12.70;99.90;;;;;;5050284;28;21278;-77
2021/12/31 10:19:06;;;;;;;9.20;3.92;;;12.60;99.90;;;;;;5070919;28;20939;-75
2021/12/31 10:21:43;;;;;;;9.23;3.47;;;12.50;99.90;;;;;;5068667;28;20750;-75
2021/12/31 10:24:32;;;;;;;7.93;3.50;;;12.40;99.90;;;;;;5068764;28;20420;-76
2021/12/31 10:27:01;;;;;;;8.18;3.47;;;12.40;99.90;;;;;;5071242;28;20492;-76
2021/12/31 10:29:27;;;;;;;9.23;3.70;;;12.40;99.90;;;;;;5072093;28;20413;-75
2021/12/31 10:31:54;;;;;;;9.93;3.63;;;12.30;99.90;;;;;;5068197;28;20944;-76
2021/12/31 10:34:31;;;;;;;11.20;4.35;;;12.30;99.90;;;;;;5071384;28;20398;-75
2021/12/31 10:37:03;;;;;;;11.98;4.60;;;12.30;99.90;;;;;;5067603;28;20411;-76
2021/12/31 10:39:37;;;;;;;10.98;4.20;;;12.20;99.90;;;;;;5066755;28;20406;-76
2021/12/31 10:42:09;;;;;;;9.40;3.90;;;12.20;99.90;;;;;;5069808;28;20453;-76
2021/12/31 10:44:48;;;;;;;9.52;3.92;;;12.10;99.90;;;;;;5070833;28;20413;-76
2021/12/31 10:47:20;;;;;;;8.77;4.05;;;12.10;99.90;;;;;;5067614;28;20793;-76
2021/12/31 10:50:01;;;;;;;10.45;3.95;;;12.10;99.90;;;;;;5068244;28;20407;-76
2021/12/31 10:52:34;;;;;;;7.90;3.67;;;12.10;99.90;;;;;;5054547;28;21071;-76
2021/12/31 10:55:15;;;;;;;8.43;3.63;;;12.10;99.90;;;;;;5070761;28;20416;-76
2021/12/31 10:57:41;;;;;;;11.50;4.38;;;12.10;99.90;;;;;;5067182;28;20794;-76
2021/12/31 11:00:09;;;;;;;8.75;3.72;;;12.10;99.90;;;;;;5068052;28;20415;-76
2021/12/31 11:02:36;;;;;;;9.10;3.83;;;12.10;99.90;;;;;;5070669;28;20432;-76
2021/12/31 11:05:03;;;;;;;8.75;3.95;;;12.20;99.90;;;;;;5067318;28;20412;-76
2021/12/31 11:07:29;;;;;;;10.18;4.78;;;12.20;99.90;;;;;;5070836;28;20471;-76
2021/12/31 11:10:00;;;;;;;10.20;3.67;;;12.20;99.90;;;;;;5041278;28;20411;-75
2021/12/31 11:12:27;;;;;;;9.00;4.05;;;12.20;99.90;;;;;;5075859;28;20521;-75
2021/12/31 11:14:54;;;;;;;9.13;4.10;;;12.20;99.90;;;;;;5088637;28;20402;-73
2021/12/31 11:17:20;;;;;;;12.05;4.03;;;12.20;99.90;;;;;;5085136;28;20420;-74
2021/12/31 11:19:49;;;;;;;9.95;4.13;;;12.30;99.90;;;;;;5067349;28;20396;-74
2021/12/31 11:22:16;;;;;;;10.50;4.47;;;12.20;99.90;;;;;;5078881;28;20462;-75
2021/12/31 11:24:43;;;;;;;12.10;4.25;;;12.20;99.90;;;;;;5070393;28;20490;-75
2021/12/31 11:27:32;;;;;;;8.73;4.20;;;12.20;99.90;;;;;;5068500;28;20968;-76
2021/12/31 11:29:59;;;;;;;10.57;4.72;;;12.20;99.90;;;;;;5088488;28;20496;-76
2021/12/31 11:32:56;;;;;;;9.02;4.75;;;12.20;99.90;;;;;;5066860;28;20443;-76
2021/12/31 11:35:58;;;;;;;11.13;5.40;;;12.20;99.90;;;;;;5068054;28;20407;-76
2021/12/31 11:38:24;;;;;;;10.80;5.28;;;12.10;99.90;;;;;;5050198;28;20439;-76
2021/12/31 11:41:07;;;;;;;10.55;5.60;;;12.10;99.90;;;;;;5050807;28;20829;-76
2021/12/31 11:43:34;;;;;;;10.15;5.70;;;12.10;99.90;;;;;;5069257;28;20422;-75
2021/12/31 11:46:30;;;;;;;11.02;5.78;;;12.00;99.90;;;;;;5053944;28;20935;-76
2021/12/31 11:48:56;;;;;;;12.40;6.60;;;12.00;99.90;;;;;;5065432;28;20452;-76
2021/12/31 11:52:07;;;;;;;12.55;6.90;;;11.90;99.90;;;;;;5051072;28;20408;-76
2021/12/31 11:54:35;;;;;;;15.48;6.93;;;11.90;99.90;;;;;;5049989;28;20406;-75
2021/12/31 11:57:02;;;;;;;16.15;8.23;;;11.80;99.90;;;;;;5069400;28;20440;-75
2021/12/31 11:59:28;;;;;;;12.32;7.18;;;11.80;99.90;;;;;;5066973;28;20767;-75
2021/12/31 12:02:13;;;;;;;13.13;7.40;;;11.70;99.90;;;;;;5066371;28;20407;-74
2021/12/31 12:05:07;;;;;;;12.80;6.75;;;11.80;99.90;;;;;;5066981;28;20432;-75
2021/12/31 12:07:37;;;;;;;13.45;6.90;;;11.70;99.90;;;;;;5049913;28;20931;-76
2021/12/31 12:10:03;;;;;;;12.70;6.33;;;11.70;99.90;;;;;;5056024;28;20442;-76
2021/12/31 12:12:31;;;;;;;12.60;6.40;;;11.70;99.90;;;;;;5058265;28;20913;-76
2021/12/31 12:15:21;;;;;;;12.07;6.72;;;11.70;99.90;;;;;;5067187;28;20415;-76
2021/12/31 12:17:47;;;;;;;12.65;7.18;;;11.70;99.90;;;;;;5070264;28;20430;-76
2021/12/31 12:20:22;;;;;;;15.00;7.05;;;11.70;99.90;;;;;;5069729;28;20402;-76
2021/12/31 12:22:55;;;;;;;11.00;6.57;;;11.70;99.90;;;;;;5069956;28;20418;-76
2021/12/31 12:25:22;;;;;;;9.68;5.68;;;11.70;99.90;;;;;;5069750;28;20455;-77
2021/12/31 12:27:51;;;;;;;7.95;5.50;;;11.70;99.90;;;;;;5074002;28;20826;-77
2021/12/31 12:30:18;;;;;;;8.50;5.20;;;11.70;99.90;;;;;;5072405;28;20416;-77
2021/12/31 12:35:14;;;;;;;7.43;4.57;;;11.70;99.90;;;;;;5073090;28;20410;-77
2021/12/31 12:37:41;;;;;;;8.75;4.57;;;11.70;99.90;;;;;;5070287;28;20431;-77
2021/12/31 12:40:08;;;;;;;5.88;4.75;;;11.70;99.90;;;;;;5054000;28;20412;-77
2021/12/31 12:42:34;;;;;;;8.33;5.13;;;11.80;99.90;;;;;;5073024;28;20418;-77
2021/12/31 12:45:07;;;;;;;5.23;4.33;;;11.70;99.90;;;;;;5071460;28;20935;-77
2021/12/31 12:47:37;;;;;;;9.90;5.63;;;11.80;99.90;;;;;;5070180;28;20848;-77
2021/12/31 12:50:09;;;;;;;8.02;4.80;;;11.70;99.90;;;;;;5070442;28;20414;-77
2021/12/31 12:52:35;;;;;;;6.03;4.40;;;11.80;99.90;;;;;;5073043;28;20417;-77